Time;durP1;ratioP1;P1;durP2;ratioP2;P2;SDS_P1;SDS_P2;PMS_P1;PMS_P2;Temp;Humidity;BMP_temperature;BMP_pressure;BME280_temperature;BME280_humidity;BME280_pressure;Samples;Min_cycle;Max_cycle;Signal;HPM_P1;HPM_P2
2021/05/20 00:00:16;;;;;;;5.03;3.03;;;;;;;17.42;56.37;98931.88;5030283;28;20029;-22
2021/05/20 00:02:41;;;;;;;6.47;3.42;;;;;;;17.47;56.35;98946.09;5029465;28;20113;-22
2021/05/20 00:05:07;;;;;;;7.13;3.70;;;;;;;17.20;57.23;98927.88;5030267;28;20037;-22
2021/05/20 00:07:33;;;;;;;5.10;3.28;;;;;;;17.57;56.03;98928.16;5028985;28;20033;-23
2021/05/20 00:09:58;;;;;;;6.60;3.03;;;;;;;16.91;58.02;98929.88;5012478;28;20103;-22
2021/05/20 00:12:24;;;;;;;7.15;3.38;;;;;;;17.07;57.53;98944.75;5030182;28;20044;-22
2021/05/20 00:14:49;;;;;;;6.13;3.55;;;;;;;17.40;56.87;98939.44;5030301;28;20037;-22
2021/05/20 00:17:14;;;;;;;7.18;3.25;;;;;;;17.19;56.69;98949.72;5030156;28;20911;-22
2021/05/20 00:19:40;;;;;;;5.18;3.20;;;;;;;16.54;59.18;98960.94;5030303;28;20029;-22
2021/05/20 00:22:05;;;;;;;5.47;3.03;;;;;;;15.97;60.63;98939.94;5030295;28;20033;-22
2021/05/20 00:24:31;;;;;;;9.07;3.13;;;;;;;16.02;60.94;98956.03;5029999;28;20079;-22
2021/05/20 00:26:56;;;;;;;6.75;2.80;;;;;;;15.43;62.51;98946.22;5029844;28;20040;-22
2021/05/20 00:29:22;;;;;;;4.47;2.90;;;;;;;15.47;62.43;98956.13;5029741;28;20025;-21
2021/05/20 00:31:47;;;;;;;5.28;2.90;;;;;;;16.13;60.74;98958.66;5030080;28;20037;-23
2021/05/20 00:34:13;;;;;;;6.00;3.10;;;;;;;16.74;58.89;98971.50;5029906;28;20108;-23
2021/05/20 00:36:38;;;;;;;5.07;2.80;;;;;;;16.62;59.01;98971.09;5029677;28;20033;-22
2021/05/20 00:39:04;;;;;;;8.13;2.85;;;;;;;16.49;59.46;98975.25;5029227;28;20034;-24
2021/05/20 00:41:29;;;;;;;6.82;2.80;;;;;;;16.69;58.64;98985.00;5029889;28;20084;-23
2021/05/20 00:43:55;;;;;;;4.68;2.90;;;;;;;16.36;60.09;99002.81;5029636;28;20040;-22
2021/05/20 00:46:20;;;;;;;6.80;3.20;;;;;;;15.83;61.93;99006.19;5029332;28;20036;-22
2021/05/20 00:48:46;;;;;;;5.60;2.95;;;;;;;15.36;63.51;99015.56;5029889;28;20095;-21
2021/05/20 00:51:11;;;;;;;6.28;2.80;;;;;;;15.16;63.49;98993.09;5029414;28;20049;-22
2021/05/20 00:53:37;;;;;;;9.48;3.60;;;;;;;15.24;63.43;99000.59;5028305;28;20429;-22
2021/05/20 00:56:03;;;;;;;9.75;4.30;;;;;;;15.28;63.48;99003.50;5029401;28;20114;-23
2021/05/20 00:58:28;;;;;;;7.53;3.70;;;;;;;15.20;63.12;99004.91;5029119;28;20025;-22
2021/05/20 01:00:54;;;;;;;7.95;3.90;;;;;;;15.74;61.96;99013.25;5011647;28;20033;-22
2021/05/20 01:03:23;;;;;;;7.68;3.20;;;;;;;15.97;60.40;99001.78;5029345;28;20069;-22
2021/05/20 01:05:49;;;;;;;6.38;3.10;;;;;;;15.83;61.19;99006.19;5029256;28;20065;-23
2021/05/20 01:08:15;;;;;;;5.65;3.33;;;;;;;16.13;60.45;99021.31;5029204;28;20029;-22
2021/05/20 01:10:40;;;;;;;6.78;3.20;;;;;;;15.68;60.85;99009.75;5029178;28;20037;-21
2021/05/20 01:13:05;;;;;;;5.80;3.40;;;;;;;15.83;61.31;99030.38;5028105;28;20041;-23
2021/05/20 01:15:34;;;;;;;5.40;3.38;;;;;;;15.84;61.28;99034.69;5029133;28;20381;-23
2021/05/20 01:18:01;;;;;;;11.38;4.57;;;;;;;15.62;61.50;99006.28;5029483;28;20347;-23
2021/05/20 01:20:28;;;;;;;8.27;3.90;;;;;;;15.80;60.99;99001.38;5029339;28;20359;-22
2021/05/20 01:23:04;;;;;;;6.55;3.80;;;;;;;16.40;59.06;98998.47;5029327;28;20044;-22
2021/05/20 01:25:30;;;;;;;7.43;3.78;;;;;;;16.43;59.58;99019.47;5029158;28;20220;-23
2021/05/20 01:28:01;;;;;;;7.32;4.00;;;;;;;16.27;59.88;99018.78;5028972;28;20489;-22
2021/05/20 01:30:27;;;;;;;8.45;4.05;;;;;;;16.09;59.80;99016.78;5027442;28;20445;-22
2021/05/20 01:32:52;;;;;;;8.52;3.72;;;;;;;15.82;61.01;99037.66;5029243;28;20494;-21
2021/05/20 01:35:17;;;;;;;10.05;4.13;;;;;;;15.66;61.40;99039.59;5029035;28;20088;-23
2021/05/20 01:37:43;;;;;;;11.15;3.92;;;;;;;15.65;61.15;99046.06;5028902;28;20440;-23
2021/05/20 01:40:09;;;;;;;8.93;4.40;;;;;;;15.87;61.09;99018.00;5028697;28;20029;-23
2021/05/20 01:42:35;;;;;;;8.68;4.22;;;;;;;16.27;60.48;99037.63;5028352;28;20059;-23
2021/05/20 01:45:00;;;;;;;6.78;4.07;;;;;;;16.07;60.54;99042.03;5028779;28;20036;-22
2021/05/20 01:47:26;;;;;;;7.28;3.40;;;;;;;16.06;60.65;99027.00;5028588;28;20041;-22
2021/05/20 01:49:54;;;;;;;7.45;3.83;;;;;;;16.12;60.36;99013.50;5028312;28;20056;-22
2021/05/20 01:52:20;;;;;;;8.73;4.45;;;;;;;16.64;58.69;99020.06;5027964;28;20108;-22
2021/05/20 01:54:45;;;;;;;7.93;4.15;;;;;;;16.37;59.24;99010.63;5028483;28;20037;-21
2021/05/20 01:57:11;;;;;;;10.32;4.38;;;;;;;15.98;61.07;99013.38;5028420;28;20857;-23
2021/05/20 01:59:36;;;;;;;7.80;4.35;;;;;;;16.16;59.89;98988.47;5028143;28;20087;-23
2021/05/20 02:02:02;;;;;;;7.60;4.03;;;;;;;16.22;59.62;98986.53;5027162;28;20087;-23
2021/05/20 02:04:27;;;;;;;7.45;4.20;;;;;;;16.41;59.20;99000.91;5027999;28;20061;-22
2021/05/20 02:06:52;;;;;;;8.73;4.90;;;;;;;16.69;58.14;98998.47;5028176;28;20045;-23
2021/05/20 02:09:18;;;;;;;15.85;4.75;;;;;;;16.81;57.95;98998.88;5028033;28;20457;-22
2021/05/20 02:11:43;;;;;;;8.23;4.30;;;;;;;16.74;57.76;98982.25;5027973;28;20037;-20
2021/05/20 02:14:09;;;;;;;8.70;4.35;;;;;;;16.61;58.63;98983.75;5028371;28;20032;-22
2021/05/20 02:16:34;;;;;;;9.25;4.70;;;;;;;16.48;59.43;99009.41;5027755;28;20037;-22
2021/05/20 02:19:00;;;;;;;9.57;4.65;;;;;;;16.30;59.94;99007.44;5028075;28;20821;-23
2021/05/20 02:21:25;;;;;;;9.05;4.70;;;;;;;16.20;60.41;99012.91;5027890;28;20057;-23
2021/05/20 02:23:51;;;;;;;8.82;4.47;;;;;;;16.23;60.52;98998.91;5027741;28;20026;-22
2021/05/20 02:26:16;;;;;;;7.97;5.15;;;;;;;16.04;61.03;98979.97;5027600;28;20034;-20
2021/05/20 02:28:42;;;;;;;8.93;5.20;;;;;;;15.71;62.06;98981.50;5027728;28;20032;-23
2021/05/20 02:31:07;;;;;;;9.23;5.50;;;;;;;15.50;62.96;98980.84;5028189;28;20148;-22
2021/05/20 02:33:33;;;;;;;8.27;5.13;;;;;;;15.51;63.12;98991.31;5027685;28;20087;-23
2021/05/20 02:35:58;;;;;;;10.90;5.72;;;;;;;15.49;63.41;98980.03;5027705;28;20476;-23
2021/05/20 02:38:23;;;;;;;7.93;4.68;;;;;;;15.55;63.61;98981.63;5027595;28;20069;-23
2021/05/20 02:40:49;;;;;;;10.85;5.00;;;;;;;15.85;62.11;98966.38;5027309;28;20037;-23
2021/05/20 02:43:14;;;;;;;8.45;4.60;;;;;;;16.01;61.59;98962.50;5027374;28;20083;-21
2021/05/20 02:45:40;;;;;;;7.70;4.18;;;;;;;16.23;60.55;98966.63;5027791;28;20092;-21
2021/05/20 02:48:06;;;;;;;8.73;4.22;;;;;;;16.37;60.12;98972.94;5027770;28;20033;-22
2021/05/20 02:50:31;;;;;;;9.40;4.03;;;;;;;16.49;59.12;98972.56;5026942;28;20068;-23
2021/05/20 02:52:57;;;;;;;7.72;3.08;;;;;;;16.47;59.12;98977.44;5027107;28;20061;-21
2021/05/20 02:55:23;;;;;;;8.13;3.20;;;;;;;16.78;58.17;98983.28;5027327;28;20083;-23
2021/05/20 02:57:51;;;;;;;7.03;2.95;;;;;;;16.92;57.57;98994.22;5026134;28;20053;-22
2021/05/20 03:00:18;;;;;;;6.65;2.80;;;;;;;17.07;56.36;98974.38;5026393;28;20116;-23
2021/05/20 03:02:46;;;;;;;7.68;2.53;;;;;;;17.19;56.15;98972.06;5027056;28;20036;-23
2021/05/20 03:05:12;;;;;;;28.83;4.47;;;;;;;17.27;55.94;98987.59;5026066;28;20067;-22
2021/05/20 03:07:37;;;;;;;8.88;2.85;;;;;;;17.19;56.80;98996.31;5027226;28;20069;-22
2021/05/20 03:10:04;;;;;;;7.20;2.60;;;;;;;17.05;56.14;98979.25;5025671;28;20160;-22
2021/05/20 03:12:29;;;;;;;7.53;2.70;;;;;;;17.19;56.12;98998.22;5026779;28;20517;-22
2021/05/20 03:14:55;;;;;;;6.13;2.67;;;;;;;17.25;56.07;99003.25;5027275;28;20033;-21
2021/05/20 03:17:20;;;;;;;9.98;2.67;;;;;;;17.22;56.17;99003.84;5027388;28;20327;-22
2021/05/20 03:19:46;;;;;;;5.00;2.70;;;;;;;16.64;57.83;98987.75;5027181;28;20021;-22
2021/05/20 03:22:11;;;;;;;9.57;3.22;;;;;;;16.67;58.04;98987.16;5026734;28;20030;-22
2021/05/20 03:24:37;;;;;;;7.95;3.50;;;;;;;16.76;58.12;98985.47;5027185;28;20026;-22
2021/05/20 03:27:02;;;;;;;14.15;3.53;;;;;;;16.59;58.16;98968.94;5027054;28;20034;-22
2021/05/20 03:29:28;;;;;;;12.70;5.25;;;;;;;16.72;57.97;98981.75;5026964;28;20024;-22
2021/05/20 03:31:53;;;;;;;7.95;3.92;;;;;;;16.80;58.36;98997.28;5027071;28;20034;-21
2021/05/20 03:34:19;;;;;;;10.77;3.65;;;;;;;16.75;58.45;98985.75;5027086;28;20045;-22
2021/05/20 03:36:44;;;;;;;6.55;3.33;;;;;;;17.01;57.86;98986.31;5027184;28;20037;-22
2021/05/20 03:39:10;;;;;;;6.47;3.25;;;;;;;17.22;57.26;98986.84;5026869;28;20430;-22
2021/05/20 03:41:35;;;;;;;8.68;4.22;;;;;;;17.15;56.97;98976.44;5026933;28;20180;-22
2021/05/20 03:44:01;;;;;;;11.63;7.50;;;;;;;17.12;57.04;98985.09;5026968;28;20025;-22
2021/05/20 03:46:26;;;;;;;11.93;6.50;;;;;;;17.10;56.94;98984.59;5026847;28;20038;-23
2021/05/20 03:48:51;;;;;;;11.98;7.30;;;;;;;17.03;57.53;98995.69;5026858;28;20033;-21
2021/05/20 03:51:17;;;;;;;11.88;6.20;;;;;;;17.13;57.10;98986.69;5026755;28;20159;-22
2021/05/20 03:53:42;;;;;;;7.90;3.95;;;;;;;17.16;57.21;98988.81;5026687;28;20048;-23
2021/05/20 03:56:08;;;;;;;7.53;3.10;;;;;;;17.76;56.31;99000.94;5026686;28;20405;-25
2021/05/20 03:58:33;;;;;;;17.90;3.40;;;;;;;17.61;56.59;99002.78;5026617;28;20025;-22
2021/05/20 04:00:59;;;;;;;8.32;2.90;;;;;;;17.94;56.15;98996.66;5026912;28;20033;-22
2021/05/20 04:03:25;;;;;;;10.68;2.95;;;;;;;17.91;55.34;98991.84;5026732;28;20029;-22
2021/05/20 04:05:54;;;;;;;14.43;4.03;;;;;;;18.10;55.78;98995.31;5026706;28;20034;-22
2021/05/20 04:08:20;;;;;;;5.57;2.10;;;;;;;18.09;56.33;98995.63;5025164;28;20457;-22
2021/05/20 04:10:45;;;;;;;8.48;2.30;;;;;;;17.85;56.28;98993.81;5026382;28;20072;-22
2021/05/20 04:13:11;;;;;;;3.17;1.80;;;;;;;17.86;56.07;99003.53;5029829;28;20037;-21
2021/05/20 04:15:36;;;;;;;7.75;2.45;;;;;;;18.11;56.03;98999.63;5030585;28;20044;-22
2021/05/20 04:18:02;;;;;;;5.88;2.20;;;;;;;18.16;55.20;99012.22;5030448;28;20033;-21
2021/05/20 04:20:27;;;;;;;13.40;2.97;;;;;;;18.56;55.05;99028.84;5029948;28;20057;-22
2021/05/20 04:22:53;;;;;;;8.73;2.20;;;;;;;18.75;54.32;99034.94;5030161;28;20406;-22
2021/05/20 04:25:18;;;;;;;4.00;1.95;;;;;;;18.32;53.44;99037.06;5029936;28;20064;-22
2021/05/20 04:27:44;;;;;;;6.65;2.40;;;;;;;18.26;54.63;99041.75;5030121;28;20033;-22
2021/05/20 04:30:09;;;;;;;7.10;2.65;;;;;;;18.18;54.98;99040.50;5030348;28;20065;-21
2021/05/20 04:32:35;;;;;;;7.38;3.00;;;;;;;18.43;54.88;99046.59;5029967;28;20111;-22
2021/05/20 04:35:00;;;;;;;5.68;2.28;;;;;;;18.50;54.78;99044.31;5029935;28;20052;-22
2021/05/20 04:37:26;;;;;;;5.78;2.10;;;;;;;18.46;55.00;99057.59;5029820;28;20107;-22
2021/05/20 04:39:51;;;;;;;6.47;2.20;;;;;;;18.41;54.89;99057.69;5029953;28;20413;-22
2021/05/20 04:42:17;;;;;;;5.53;2.13;;;;;;;18.55;54.56;99060.44;5030057;28;20033;-22
2021/05/20 04:44:43;;;;;;;7.00;2.33;;;;;;;18.46;54.97;99059.50;5029707;28;20038;-21
2021/05/20 04:47:08;;;;;;;6.38;3.03;;;;;;;18.46;54.48;99052.19;5029604;28;20037;-21
2021/05/20 04:49:34;;;;;;;7.03;2.10;;;;;;;18.46;55.22;99067.59;5029891;28;20087;-21
2021/05/20 04:51:59;;;;;;;3.92;2.00;;;;;;;18.59;53.99;99066.03;5029783;28;20107;-22
2021/05/20 04:54:25;;;;;;;6.05;2.42;;;;;;;18.49;54.68;99056.22;5029390;28;20033;-22
2021/05/20 04:56:50;;;;;;;3.97;1.83;;;;;;;18.86;54.41;99066.13;5029790;28;20772;-21
2021/05/20 04:59:15;;;;;;;8.00;2.30;;;;;;;19.00;53.37;99066.16;5029457;28;20021;-21
2021/05/20 05:01:41;;;;;;;4.20;2.15;;;;;;;18.70;55.30;99051.25;5029599;28;20037;-21
2021/05/20 05:04:06;;;;;;;5.97;2.97;;;;;;;18.65;55.13;99075.66;5028338;28;20037;-21
2021/05/20 05:06:32;;;;;;;7.13;2.65;;;;;;;18.18;55.87;99088.28;5029298;28;20044;-21
2021/05/20 05:08:57;;;;;;;7.57;2.63;;;;;;;18.06;56.69;99094.13;5028985;28;20029;-21
2021/05/20 05:11:23;;;;;;;7.30;2.35;;;;;;;18.45;56.19;99088.41;5029325;28;20121;-21
2021/05/20 05:13:48;;;;;;;8.07;2.65;;;;;;;18.41;55.55;99082.00;5029432;28;20060;-22
2021/05/20 05:16:14;;;;;;;6.13;2.22;;;;;;;18.21;56.45;99085.00;5029151;28;20037;-22
2021/05/20 05:18:40;;;;;;;9.45;2.40;;;;;;;18.68;55.57;99102.06;5029022;28;20029;-21
2021/05/20 05:21:05;;;;;;;4.43;2.20;;;;;;;19.22;53.87;99100.56;5028998;28;20405;-21
2021/05/20 05:23:32;;;;;;;5.03;2.05;;;;;;;19.37;54.67;99098.66;5028566;28;20025;-21
2021/05/20 05:25:57;;;;;;;4.35;1.75;;;;;;;19.09;54.40;99073.56;5029387;28;20076;-21
2021/05/20 05:28:22;;;;;;;7.43;2.10;;;;;;;19.17;52.95;99092.56;5028859;28;20041;-21
2021/05/20 05:30:48;;;;;;;9.07;2.90;;;;;;;19.09;51.95;99090.56;5029009;28;20075;-21
2021/05/20 05:33:13;;;;;;;4.57;1.52;;;;;;;18.96;51.70;99077.84;5028630;28;20034;-21
2021/05/20 05:35:39;;;;;;;5.72;1.70;;;;;;;18.78;50.38;99087.59;5028873;28;20029;-21
2021/05/20 05:38:04;;;;;;;9.90;2.15;;;;;;;18.99;53.27;99098.88;5028545;28;20029;-21
2021/05/20 05:40:30;;;;;;;9.63;4.22;;;;;;;19.47;51.95;99101.16;5028777;28;20033;-21
2021/05/20 05:42:55;;;;;;;12.82;5.32;;;;;;;19.58;51.64;99091.75;5028844;28;20037;-22
2021/05/20 05:45:21;;;;;;;8.98;2.88;;;;;;;19.30;52.36;99095.59;5028752;28;20033;-21
2021/05/20 05:47:46;;;;;;;4.95;1.95;;;;;;;19.32;51.04;99082.56;5028742;28;20056;-21
2021/05/20 05:50:14;;;;;;;12.20;5.30;;;;;;;19.64;52.18;99085.16;5028249;28;20061;-22
2021/05/20 05:52:39;;;;;;;6.57;2.88;;;;;;;19.78;50.62;99095.19;5028296;28;20053;-22
2021/05/20 05:55:06;;;;;;;6.65;2.50;;;;;;;20.06;49.56;99085.88;5028450;28;20071;-21
2021/05/20 05:57:31;;;;;;;6.22;2.70;;;;;;;20.04;48.40;99109.75;5028445;28;20160;-21
2021/05/20 05:59:57;;;;;;;4.65;1.90;;;;;;;20.00;48.27;99087.13;5027025;28;20056;-22
2021/05/20 06:02:22;;;;;;;8.10;1.90;;;;;;;19.45;48.99;99081.75;5028164;28;20044;-21
2021/05/20 06:04:49;;;;;;;4.95;1.55;;;;;;;19.15;49.19;99083.97;5027194;28;20168;-21
2021/05/20 06:07:14;;;;;;;5.93;1.67;;;;;;;18.93;50.07;99078.44;5027980;28;20025;-21
2021/05/20 06:09:39;;;;;;;14.07;6.18;;;;;;;19.27;51.15;99086.19;5028035;28;20048;-21
2021/05/20 06:12:05;;;;;;;6.10;1.80;;;;;;;19.27;49.98;99073.47;5028042;28;20048;-22
2021/05/20 06:14:30;;;;;;;5.85;2.05;;;;;;;19.56;49.61;99072.34;5035893;28;20025;-22
2021/05/20 06:16:56;;;;;;;6.82;2.00;;;;;;;19.60;50.01;99078.75;5038106;28;20055;-21
2021/05/20 06:19:21;;;;;;;6.65;2.88;;;;;;;19.43;50.21;99056.91;5037362;28;20504;-20
2021/05/20 06:21:47;;;;;;;6.32;1.83;;;;;;;19.50;50.23;99062.72;5036728;28;20040;-21
2021/05/20 06:24:12;;;;;;;5.32;1.80;;;;;;;19.76;50.18;99067.63;5038436;28;20409;-22
2021/05/20 06:26:38;;;;;;;5.20;1.50;;;;;;;19.94;49.64;99061.28;5037961;28;20021;-22
2021/05/20 06:29:03;;;;;;;3.33;1.42;;;;;;;19.78;50.07;99052.69;5037187;28;20037;-22
2021/05/20 06:31:29;;;;;;;7.72;2.15;;;;;;;20.27;49.62;99066.47;5028543;28;20033;-21
2021/05/20 06:33:55;;;;;;;9.70;2.28;;;;;;;20.73;47.31;99078.88;5027489;28;20112;-21
2021/05/20 06:36:22;;;;;;;4.97;1.50;;;;;;;20.48;47.72;99070.25;5026465;28;20037;-21
2021/05/20 06:38:47;;;;;;;3.47;1.38;;;;;;;20.31;48.32;99086.41;5026325;28;20029;-21
2021/05/20 06:41:13;;;;;;;5.60;1.70;;;;;;;20.25;48.97;99076.78;5028078;28;20425;-21
2021/05/20 06:43:38;;;;;;;3.63;1.52;;;;;;;20.76;48.07;99080.16;5027983;28;20038;-21
2021/05/20 06:46:07;;;;;;;5.32;1.60;;;;;;;21.12;47.56;99081.94;5027584;28;20082;-21
2021/05/20 06:48:33;;;;;;;4.20;1.30;;;;;;;21.47;46.89;99069.31;5025940;28;20025;-21
2021/05/20 06:50:58;;;;;;;3.42;1.50;;;;;;;21.33;45.38;99090.28;5026873;28;20057;-22
2021/05/20 06:53:25;;;;;;;5.13;1.60;;;;;;;21.21;46.07;99070.03;5027710;28;20064;-22
2021/05/20 06:55:54;;;;;;;4.85;1.67;;;;;;;21.17;46.08;99089.94;5027467;28;20792;-21
2021/05/20 07:01:04;;;;;;;5.30;2.20;;;;;;;20.41;47.79;99069.09;5027408;28;20080;-21
2021/05/20 07:03:29;;;;;;;6.80;1.73;;;;;;;20.18;48.08;99088.03;5027214;28;20025;-21
2021/05/20 07:05:55;;;;;;;3.58;1.40;;;;;;;20.37;47.58;99078.94;5027304;28;20033;-20
2021/05/20 07:08:20;;;;;;;2.08;1.30;;;;;;;20.55;46.99;99090.69;5026000;28;20032;-21
2021/05/20 07:10:46;;;;;;;3.22;1.48;;;;;;;20.57;46.89;99096.59;5027152;28;20034;-22
2021/05/20 07:13:11;;;;;;;4.88;1.30;;;;;;;20.90;46.46;99101.75;5027348;28;20413;-21
2021/05/20 07:15:37;;;;;;;7.60;1.80;;;;;;;21.33;45.77;99098.44;5027064;28;20029;-21
2021/05/20 07:18:03;;;;;;;13.23;2.10;;;;;;;21.13;46.00;99095.19;5026969;28;20041;-22
2021/05/20 07:20:28;;;;;;;5.57;1.58;;;;;;;21.42;45.60;99091.13;5026796;28;20030;-21
2021/05/20 07:22:53;;;;;;;4.43;1.25;;;;;;;20.78;45.40;99103.16;5027220;28;20041;-21
2021/05/20 07:25:19;;;;;;;4.72;1.60;;;;;;;20.42;45.71;99070.69;5027356;28;20116;-21
2021/05/20 07:27:44;;;;;;;3.45;1.55;;;;;;;20.20;46.59;99095.84;5027312;28;20025;-21
2021/05/20 07:30:12;;;;;;;5.20;1.50;;;;;;;20.47;46.33;99079.50;5026761;28;20021;-20
2021/05/20 07:32:37;;;;;;;5.72;1.30;;;;;;;20.82;45.99;99096.00;5027039;28;20032;-21
2021/05/20 07:35:05;;;;;;;4.72;1.50;;;;;;;21.50;45.76;99093.09;5026007;28;20480;-22
2021/05/20 07:37:31;;;;;;;7.25;1.73;;;;;;;21.62;43.27;99090.59;5027058;28;20029;-21
2021/05/20 07:39:56;;;;;;;5.30;1.23;;;;;;;21.41;44.01;99078.69;5027060;28;20025;-21
2021/05/20 07:42:21;;;;;;;2.92;1.20;;;;;;;21.22;44.52;99085.16;5025415;28;20044;-21
2021/05/20 07:44:53;;;;;;;4.72;1.25;;;;;;;20.90;44.48;99080.06;5026729;28;20134;-21
2021/05/20 07:47:18;;;;;;;4.75;1.48;;;;;;;21.05;44.29;99072.34;5028697;28;20478;-21
2021/05/20 07:49:43;;;;;;;4.18;1.23;;;;;;;20.68;44.40;99089.84;5030588;28;20095;-22
2021/05/20 07:52:09;;;;;;;4.05;1.10;;;;;;;20.82;44.32;99101.41;5030722;28;20528;-21
2021/05/20 07:54:34;;;;;;;2.85;1.20;;;;;;;20.53;44.69;99079.38;5030563;28;20071;-21
2021/05/20 07:57:00;;;;;;;4.78;1.17;;;;;;;20.27;45.08;99090.81;5030923;28;20068;-21
2021/05/20 07:59:25;;;;;;;2.70;1.38;;;;;;;20.22;46.13;99082.81;5030653;28;20029;-22
2021/05/20 08:02:08;;;;;;;3.10;1.17;;;;;;;20.36;45.58;99088.19;5030465;28;20037;-21
2021/05/20 08:04:35;;;;;;;4.10;1.27;;;;;;;20.30;46.37;99095.63;5030586;28;20164;-21
2021/05/20 08:07:09;;;;;;;4.90;1.33;;;;;;;20.48;45.94;99097.34;5030535;28;20036;-21
2021/05/20 08:09:37;;;;;;;2.38;1.13;;;;;;;20.85;45.79;99100.78;5030421;28;20476;-21
2021/05/20 08:12:02;;;;;;;3.40;1.00;;;;;;;20.63;45.87;99106.22;5030589;28;20867;-21
2021/05/20 08:14:28;;;;;;;4.07;1.15;;;;;;;21.32;46.38;99092.22;5029951;28;20026;-21
2021/05/20 08:16:53;;;;;;;2.70;0.95;;;;;;;21.94;44.16;99068.75;5030340;28;20034;-22
2021/05/20 08:19:19;;;;;;;3.13;1.08;;;;;;;22.19;42.44;99086.16;5030285;28;20032;-22
2021/05/20 08:21:44;;;;;;;3.03;0.95;;;;;;;22.11;42.34;99078.78;5030202;28;20033;-21
2021/05/20 08:24:10;;;;;;;2.40;0.90;;;;;;;21.92;43.56;99100.84;5030095;28;20100;-18
2021/05/20 08:26:35;;;;;;;2.20;1.08;;;;;;;22.63;43.38;99106.75;5030049;28;20538;-21
2021/05/20 08:29:01;;;;;;;3.85;1.02;;;;;;;22.36;41.94;99107.91;5029940;28;20029;-21
2021/05/20 08:31:29;;;;;;;2.78;1.00;;;;;;;21.55;43.37;99108.44;5030169;28;20952;-21
2021/05/20 08:33:54;;;;;;;2.78;0.98;;;;;;;21.31;43.44;99111.50;5030264;28;20037;-22
2021/05/20 08:36:20;;;;;;;4.07;0.98;;;;;;;21.65;42.56;99092.66;5029738;28;20040;-23
2021/05/20 08:38:45;;;;;;;1.55;0.80;;;;;;;22.35;41.54;99097.34;5029866;28;20474;-24
2021/05/20 08:41:11;;;;;;;3.08;0.90;;;;;;;22.59;40.83;99102.28;5029817;28;20493;-24
2021/05/20 08:43:38;;;;;;;10.90;1.08;;;;;;;22.19;41.59;99129.59;5012287;28;20142;-24
2021/05/20 08:46:04;;;;;;;2.40;0.80;;;;;;;22.43;40.38;99127.25;5029936;28;20112;-24
2021/05/20 08:48:30;;;;;;;2.33;0.90;;;;;;;22.76;40.87;99126.72;5029471;28;20473;-23
2021/05/20 08:50:56;;;;;;;5.30;0.95;;;;;;;23.00;39.87;99125.38;5029450;28;20509;-23
2021/05/20 08:53:21;;;;;;;12.73;1.40;;;;;;;22.87;39.92;99127.16;5028656;28;20080;-23
2021/05/20 08:55:47;;;;;;;4.57;1.20;;;;;;;23.17;40.05;99129.97;5029535;28;20034;-24
2021/05/20 08:58:12;;;;;;;4.28;1.00;;;;;;;23.48;39.80;99113.38;5028367;28;20026;-23
2021/05/20 09:00:39;;;;;;;4.35;1.42;;;;;;;23.48;40.17;99135.16;5029715;28;20060;-24
2021/05/20 09:03:11;;;;;;;3.63;1.30;;;;;;;23.40;40.05;99117.72;5029357;28;20039;-24
2021/05/20 09:05:37;;;;;;;3.10;1.10;;;;;;;23.47;40.27;99118.00;5029435;28;20026;-22
2021/05/20 09:08:06;;;;;;;9.23;2.10;;;;;;;22.87;39.30;99125.25;5029399;28;20037;-23
2021/05/20 09:10:33;;;;;;;4.57;1.48;;;;;;;23.33;39.36;99122.09;5028911;28;20028;-22
2021/05/20 09:12:59;;;;;;;3.78;1.45;;;;;;;24.04;39.79;99135.00;5029450;28;20033;-23
2021/05/20 09:15:32;;;;;;;8.00;1.20;;;;;;;23.57;38.68;99111.41;5029530;28;20139;-22
2021/05/20 09:18:18;;;;;;;2.67;1.00;;;;;;;24.02;38.53;99143.50;5029470;28;20489;-23
2021/05/20 09:20:45;;;;;;;3.50;1.10;;;;;;;23.46;36.69;99154.50;5028952;28;20464;-23
2021/05/20 09:23:12;;;;;;;3.25;0.80;;;;;;;22.40;38.12;99148.81;5028977;28;20037;-23
2021/05/20 09:25:39;;;;;;;0.60;0.43;;;;;;;21.91;39.18;99165.19;5029141;28;20041;-23
2021/05/20 09:28:05;;;;;;;1.65;0.60;;;;;;;21.20;38.03;99149.75;5029039;28;20040;-24
2021/05/20 09:30:31;;;;;;;3.22;0.60;;;;;;;21.23;39.74;99159.97;5028652;28;20083;-23
2021/05/20 09:32:59;;;;;;;3.60;0.60;;;;;;;21.37;38.07;99186.19;5028782;28;20032;-24
2021/05/20 09:35:26;;;;;;;2.10;0.40;;;;;;;21.22;39.05;99168.41;5028595;28;20049;-23
2021/05/20 09:37:53;;;;;;;3.15;0.38;;;;;;;21.24;39.84;99180.53;5028718;28;20131;-23
2021/05/20 09:40:21;;;;;;;6.75;0.82;;;;;;;20.90;39.49;99166.78;5028746;28;20132;-23
2021/05/20 09:42:47;;;;;;;12.07;1.08;;;;;;;20.72;39.95;99152.34;5028561;28;20025;-24
2021/05/20 09:45:14;;;;;;;2.55;0.45;;;;;;;20.81;39.86;99164.84;5028482;28;20080;-24
2021/05/20 09:47:40;;;;;;;4.05;0.63;;;;;;;20.57;41.02;99148.06;5027177;28;20474;-23
2021/05/20 09:50:11;;;;;;;4.75;0.75;;;;;;;20.87;41.86;99133.00;5028334;28;20040;-23
2021/05/20 09:52:36;;;;;;;1.33;0.40;;;;;;;21.07;41.61;99140.59;5028531;28;20510;-24
2021/05/20 09:55:02;;;;;;;2.00;0.30;;;;;;;21.64;41.64;99136.41;5028543;28;20037;-23
2021/05/20 09:57:30;;;;;;;3.65;1.73;;;;;;;22.54;40.93;99140.50;5028679;28;20400;-23
2021/05/20 10:00:08;;;;;;;1.83;0.52;;;;;;;22.71;39.47;99156.00;5028296;28;20045;-23
2021/05/20 10:02:33;;;;;;;3.13;0.40;;;;;;;22.72;38.25;99135.81;5028347;28;20453;-24
2021/05/20 10:05:24;;;;;;;4.13;0.32;;;;;;;22.98;37.13;99143.94;5028152;28;20579;-23
2021/05/20 10:07:49;;;;;;;6.00;0.50;;;;;;;22.80;36.12;99145.88;5027960;28;20171;-23
2021/05/20 10:10:15;;;;;;;6.45;0.60;;;;;;;22.86;36.66;99153.56;5027687;28;20105;-23
2021/05/20 10:12:45;;;;;;;2.38;0.88;;;;;;;22.60;37.10;99163.69;5028010;28;20033;-23
2021/05/20 10:15:12;;;;;;;3.22;0.45;;;;;;;22.05;36.64;99171.28;5027969;28;20095;-25
2021/05/20 10:17:38;;;;;;;7.45;0.50;;;;;;;21.77;37.74;99159.09;5028038;28;20548;-24
2021/05/20 10:20:05;;;;;;;0.17;0.10;;;;;;;22.01;37.12;99186.59;5026780;28;20034;-23
2021/05/20 10:22:32;;;;;;;0.73;0.35;;;;;;;21.71;37.22;99184.78;5027646;28;20029;-24
2021/05/20 10:24:57;;;;;;;0.47;0.22;;;;;;;21.16;36.49;99186.72;5027858;28;20497;-23
2021/05/20 10:27:22;;;;;;;1.30;0.30;;;;;;;20.55;38.43;99178.16;5026489;28;20029;-24
2021/05/20 10:29:49;;;;;;;1.10;0.47;;;;;;;20.99;38.58;99162.25;5027612;28;20025;-23
2021/05/20 10:32:15;;;;;;;0.43;0.20;;;;;;;21.20;38.31;99176.06;5010201;28;20496;-23
2021/05/20 10:35:04;;;;;;;0.88;0.35;;;;;;;20.47;39.25;99185.13;5026745;28;20485;-22
2021/05/20 10:37:40;;;;;;;0.70;0.40;;;;;;;20.43;38.83;99184.13;5027751;28;20752;-23
2021/05/20 10:40:26;;;;;;;1.98;0.30;;;;;;;20.74;38.66;99196.16;5026725;28;20025;-23
2021/05/20 10:43:22;;;;;;;1.80;0.25;;;;;;;20.97;38.91;99197.00;5027864;28;20094;-23
2021/05/20 10:46:08;;;;;;;2.20;0.45;;;;;;;21.15;38.38;99184.34;5021846;28;20112;-24
2021/05/20 10:48:35;;;;;;;2.72;0.30;;;;;;;21.08;39.07;99184.75;5027088;28;20040;-24
2021/05/20 10:51:01;;;;;;;1.45;0.30;;;;;;;20.94;38.59;99198.38;5027446;28;20045;-23
2021/05/20 10:53:46;;;;;;;0.77;0.32;;;;;;;21.61;39.15;99193.97;5027596;28;20048;-24
2021/05/20 10:56:14;;;;;;;1.92;0.20;;;;;;;22.65;37.24;99188.75;5027538;28;20055;-23
2021/05/20 10:58:40;;;;;;;0.47;0.10;;;;;;;21.96;37.44;99170.44;5027274;28;20063;-22
2021/05/20 11:01:08;;;;;;;1.65;0.38;;;;;;;22.07;37.44;99177.19;5027522;28;20030;-23
2021/05/20 11:03:49;;;;;;;1.67;0.50;;;;;;;22.75;36.28;99184.91;5027396;28;20057;-23
2021/05/20 11:06:15;;;;;;;1.88;0.30;;;;;;;22.85;36.87;99179.13;5027120;28;20469;-24
2021/05/20 11:08:46;;;;;;;0.47;0.10;;;;;;;22.70;36.47;99192.41;5027237;28;20091;-23
2021/05/20 11:11:30;;;;;;;1.50;0.50;;;;;;;22.88;35.41;99194.00;5027059;28;20029;-23
2021/05/20 11:13:56;;;;;;;0.95;0.20;;;;;;;23.36;36.28;99203.06;5027130;28;20397;-23
2021/05/20 11:16:29;;;;;;;2.53;0.30;;;;;;;23.37;34.04;99170.06;5009441;28;20041;-23
2021/05/20 11:18:54;;;;;;;2.22;0.40;;;;;;;23.51;34.97;99182.66;5027042;28;20415;-23
2021/05/20 11:21:20;;;;;;;3.63;0.30;;;;;;;23.71;35.32;99183.88;5011112;28;20037;-23
2021/05/20 11:23:45;;;;;;;1.60;0.28;;;;;;;23.71;33.22;99164.81;5033562;28;20070;-25
2021/05/20 11:26:15;;;;;;;1.45;0.30;;;;;;;23.63;33.49;99183.56;5032241;28;20460;-22
2021/05/20 11:28:47;;;;;;;1.92;0.47;;;;;;;23.55;33.26;99189.84;5033649;28;20038;-23
2021/05/20 11:31:13;;;;;;;0.60;0.43;;;;;;;23.27;33.41;99184.03;5033907;28;20034;-23